Time;durP1;ratioP1;P1;durP2;ratioP2;P2;SDS_P1;SDS_P2;PMS_P1;PMS_P2;Temp;Humidity;BMP_temperature;BMP_pressure;BME280_temperature;BME280_humidity;BME280_pressure;Samples;Min_cycle;Max_cycle;Signal;HPM_P1;HPM_P2
2020/12/16 00:00:56;;;;;;;17.00;12.82;;;;;;;3.61;73.44;97797.94;1752502;82;21274;-88
2020/12/16 00:03:23;;;;;;;19.45;14.58;;;;;;;3.63;73.62;97794.35;1706745;84;21166;-86
2020/12/16 00:05:51;;;;;;;14.03;11.03;;;;;;;3.57;73.89;97798.06;1744323;82;21274;-80
2020/12/16 00:08:22;;;;;;;17.98;12.25;;;;;;;3.59;73.02;97798.84;1822197;78;21132;-75
2020/12/16 00:10:52;;;;;;;19.50;13.62;;;;;;;3.53;74.10;97804.30;1814578;78;21133;-86
2020/12/16 00:13:19;;;;;;;15.38;11.90;;;;;;;3.50;73.67;97812.70;1789160;80;21475;-89
2020/12/16 00:15:50;;;;;;;17.00;11.73;;;;;;;3.50;73.37;97809.65;1790243;80;21100;-74
2020/12/16 00:18:20;;;;;;;17.60;11.90;;;;;;;3.54;73.63;97810.38;1790499;80;21780;-73
2020/12/16 00:20:49;;;;;;;16.32;11.00;;;;;;;3.63;73.59;97816.95;1794765;78;21287;-87
2020/12/16 00:23:16;;;;;;;17.00;12.23;;;;;;;3.71;73.58;97817.52;1815555;78;21254;-78
2020/12/16 00:25:44;;;;;;;11.93;7.33;;;;;;;3.78;73.49;97818.95;1818290;77;21725;-80
2020/12/16 00:28:24;;;;;;;15.90;10.70;;;;;;;3.84;73.47;97820.47;1818392;79;21279;-85
2020/12/16 00:30:52;;;;;;;14.73;10.98;;;;;;;3.85;73.48;97816.95;1818663;78;21254;-76
2020/12/16 00:33:20;;;;;;;14.68;11.05;;;;;;;3.91;73.51;97816.68;1822591;79;21124;-76
2020/12/16 00:35:48;;;;;;;17.23;11.18;;;;;;;3.91;73.31;97814.07;1800041;78;21294;-88
2020/12/16 00:38:18;;;;;;;18.32;12.43;;;;;;;3.88;73.33;97811.14;1716812;81;21696;-77
2020/12/16 00:40:46;;;;;;;17.98;12.80;;;;;;;3.86;73.22;97812.09;1745288;81;21158;-86
2020/12/16 00:43:22;;;;;;;15.15;11.45;;;;;;;3.78;72.97;97809.83;1751408;81;21178;-91
2020/12/16 00:45:49;;;;;;;18.23;12.30;;;;;;;3.70;73.17;97808.83;1720991;82;21156;-82
2020/12/16 00:48:17;;;;;;;15.50;11.57;;;;;;;3.70;73.28;97811.44;1712682;83;21565;-94
2020/12/16 00:50:44;;;;;;;14.87;11.00;;;;;;;3.71;73.30;97807.09;1762661;81;21727;-87
2020/12/16 00:53:11;;;;;;;15.85;10.98;;;;;;;3.73;73.20;97813.92;1742282;82;21289;-89
2020/12/16 00:55:41;;;;;;;17.27;11.65;;;;;;;3.74;73.23;97811.72;1751676;81;21293;-74
2020/12/16 00:58:10;;;;;;;16.23;10.72;;;;;;;3.74;73.12;97816.93;1715423;83;21125;-74
2020/12/16 01:00:39;;;;;;;13.85;10.00;;;;;;;3.77;73.20;97814.64;1769946;81;21160;-73
2020/12/16 01:03:09;;;;;;;13.60;10.65;;;;;;;3.82;73.26;97813.16;1745086;82;21251;-75
2020/12/16 01:05:41;;;;;;;11.78;7.97;;;;;;;3.88;73.35;97813.75;1754956;81;21295;-74
2020/12/16 01:08:11;;;;;;;12.70;8.58;;;;;;;3.98;73.47;97815.50;1699125;84;21160;-75
2020/12/16 01:10:39;;;;;;;14.73;9.50;;;;;;;4.01;73.23;97809.30;1749612;81;21277;-74
2020/12/16 01:13:08;;;;;;;11.08;7.67;;;;;;;4.04;73.15;97814.41;1714678;84;21199;-77
2020/12/16 01:15:36;;;;;;;10.80;7.70;;;;;;;4.09;73.19;97801.16;1747424;81;21226;-76
2020/12/16 01:18:06;;;;;;;10.20;8.43;;;;;;;4.06;73.04;97797.77;1714836;82;21135;-78
2020/12/16 01:20:38;;;;;;;12.37;9.65;;;;;;;4.03;72.98;97788.78;1745169;82;21293;-76
2020/12/16 01:23:10;;;;;;;10.85;8.45;;;;;;;4.01;72.91;97792.34;1730424;82;21328;-84
2020/12/16 01:25:40;;;;;;;12.20;9.18;;;;;;;4.04;72.94;97790.92;1749364;81;21155;-76
2020/12/16 01:28:10;;;;;;;12.98;8.83;;;;;;;4.08;72.62;97795.55;1753357;81;21242;-88
2020/12/16 01:30:41;;;;;;;12.53;9.00;;;;;;;4.01;72.64;97793.21;1758460;81;21146;-79
2020/12/16 01:33:24;;;;;;;10.68;8.33;;;;;;;4.03;72.48;97796.61;1769144;79;24445;-84
2020/12/16 01:35:53;;;;;;;10.03;7.50;;;;;;;3.95;72.62;97803.05;1687694;84;21291;-74
2020/12/16 01:38:22;;;;;;;10.95;8.08;;;;;;;3.88;72.51;97807.23;1709737;83;21764;-76
2020/12/16 01:40:53;;;;;;;8.70;7.70;;;;;;;3.86;72.55;97800.36;1711082;83;21181;-74
2020/12/16 01:43:25;;;;;;;10.80;7.65;;;;;;;3.83;72.49;97801.34;1708606;84;21315;-76
2020/12/16 01:45:52;;;;;;;7.00;5.53;;;;;;;3.78;72.57;97798.53;1706164;84;21130;-80
2020/12/16 01:48:20;;;;;;;10.88;7.60;;;;;;;3.74;72.67;97798.68;1708982;84;21137;-77
2020/12/16 01:50:47;;;;;;;10.20;7.83;;;;;;;3.71;72.73;97793.58;1705891;84;21275;-75
2020/12/16 01:53:17;;;;;;;8.58;6.37;;;;;;;3.67;72.98;97787.25;1707399;83;21222;-74
2020/12/16 01:55:47;;;;;;;11.22;6.65;;;;;;;3.69;72.98;97793.26;1690375;83;21290;-73
2020/12/16 01:58:28;;;;;;;5.53;3.83;;;;;;;3.65;73.07;97792.98;1706957;84;21278;-76
2020/12/16 02:01:02;;;;;;;9.50;6.47;;;;;;;3.61;73.30;97794.87;1709084;83;21144;-75
2020/12/16 02:03:36;;;;;;;9.95;7.35;;;;;;;3.58;73.24;97793.67;1707807;84;21148;-88
2020/12/16 02:06:09;;;;;;;12.95;6.75;;;;;;;3.60;73.32;97799.69;1709335;83;21241;-77
2020/12/16 02:08:39;;;;;;;11.10;5.83;;;;;;;3.58;73.46;97794.98;1709860;83;21116;-75
2020/12/16 02:11:08;;;;;;;11.50;7.47;;;;;;;3.63;73.31;97802.17;1659342;85;21125;-75
2020/12/16 02:13:39;;;;;;;8.58;6.12;;;;;;;3.63;73.25;97794.35;1681882;84;21113;-79
2020/12/16 02:16:07;;;;;;;11.30;7.17;;;;;;;3.65;73.17;97799.49;1708151;80;21224;-73
2020/12/16 02:18:35;;;;;;;6.17;4.78;;;;;;;3.59;73.08;97795.38;1710256;84;21232;-78
2020/12/16 02:21:05;;;;;;;9.58;7.20;;;;;;;3.60;72.82;97795.77;1709851;81;21124;-82
2020/12/16 02:23:41;;;;;;;11.57;8.13;;;;;;;3.49;72.93;97791.44;1710724;80;21153;-75
2020/12/16 02:26:10;;;;;;;11.10;8.18;;;;;;;3.43;73.20;97796.01;1708406;80;21275;-81
2020/12/16 02:28:42;;;;;;;9.50;7.40;;;;;;;3.37;73.59;97793.66;1710484;82;21121;-74
2020/12/16 02:31:11;;;;;;;10.85;7.03;;;;;;;3.33;73.72;97793.38;1710348;80;21254;-75
2020/12/16 02:33:58;;;;;;;10.25;6.87;;;;;;;3.32;73.15;97787.77;1684118;81;21249;-74
2020/12/16 02:36:27;;;;;;;7.47;5.97;;;;;;;3.32;73.39;97794.75;1689521;80;21126;-74
2020/12/16 02:39:10;;;;;;;8.05;6.50;;;;;;;3.35;73.37;97794.17;1709156;80;21148;-74
2020/12/16 02:42:01;;;;;;;8.75;6.40;;;;;;;3.33;73.66;97785.55;1800434;79;24903;-93
2020/12/16 02:44:37;;;;;;;10.32;7.00;;;;;;;3.33;73.65;97786.86;1766458;81;21230;-73
2020/12/16 02:47:21;;;;;;;8.18;6.10;;;;;;;3.46;73.68;97793.73;1780588;79;24301;-87
2020/12/16 02:49:49;;;;;;;9.20;6.47;;;;;;;3.42;73.52;97794.31;1752737;82;21262;-79
2020/12/16 02:52:18;;;;;;;9.95;6.08;;;;;;;3.44;73.66;97794.23;1726405;82;21140;-79
2020/12/16 02:54:47;;;;;;;7.42;5.95;;;;;;;3.52;73.73;97796.55;1749962;82;21148;-77
2020/12/16 02:57:31;;;;;;;8.20;6.17;;;;;;;3.72;73.77;97803.10;1780967;79;24604;-84
2020/12/16 03:00:02;;;;;;;7.30;5.10;;;;;;;3.78;73.57;97799.39;1757423;79;21108;-76
2020/12/16 03:02:49;;;;;;;8.65;6.25;;;;;;;3.82;72.94;97803.55;1739978;82;21274;-75
2020/12/16 03:05:21;;;;;;;11.25;6.00;;;;;;;3.80;73.01;97799.32;1742346;82;21521;-90
2020/12/16 03:07:49;;;;;;;7.55;5.62;;;;;;;3.74;72.67;97798.68;1750559;82;21175;-79
2020/12/16 03:10:17;;;;;;;9.80;6.40;;;;;;;3.73;72.53;97800.02;1756217;82;21109;-75
2020/12/16 03:12:44;;;;;;;9.35;6.72;;;;;;;3.61;72.56;97800.08;1756694;82;21125;-77
2020/12/16 03:15:12;;;;;;;8.25;6.17;;;;;;;3.59;72.69;97797.98;1735133;81;21255;-72
2020/12/16 03:17:40;;;;;;;9.00;6.22;;;;;;;3.53;72.55;97802.16;1724910;83;21301;-76
2020/12/16 03:20:10;;;;;;;8.18;6.67;;;;;;;3.49;72.60;97805.34;1716910;82;21549;-81
2020/12/16 03:22:38;;;;;;;7.75;6.65;;;;;;;3.42;72.96;97803.43;1741417;82;21120;-92
2020/12/16 03:25:13;;;;;;;8.03;5.78;;;;;;;3.37;73.18;97805.83;1725945;83;21194;-76
2020/12/16 03:27:55;;;;;;;8.78;5.97;;;;;;;3.37;72.92;97800.17;1852527;77;24250;-84
2020/12/16 03:30:27;;;;;;;7.87;6.00;;;;;;;3.31;72.98;97803.00;1855492;77;21207;-84
2020/12/16 03:33:11;;;;;;;8.23;6.58;;;;;;;3.39;73.26;97805.31;1771510;79;24325;-90
2020/12/16 03:35:53;;;;;;;8.00;5.85;;;;;;;3.41;73.32;97812.63;1724701;83;21080;-75
2020/12/16 03:38:24;;;;;;;8.85;6.33;;;;;;;3.50;73.39;97809.65;1726945;83;21263;-76
2020/12/16 03:40:53;;;;;;;10.65;6.20;;;;;;;3.59;73.44;97806.67;1756794;82;21156;-75
2020/12/16 03:43:22;;;;;;;8.33;5.92;;;;;;;3.72;73.47;97807.45;1755499;82;21113;-75
2020/12/16 03:45:52;;;;;;;7.92;5.95;;;;;;;3.83;73.33;97813.08;1752311;82;21136;-74
2020/12/16 03:48:20;;;;;;;6.90;5.75;;;;;;;3.91;73.27;97814.07;1726560;83;21341;-74
2020/12/16 03:50:48;;;;;;;7.83;5.70;;;;;;;4.06;73.26;97818.64;1732999;82;21120;-75
2020/12/16 03:53:15;;;;;;;11.38;6.72;;;;;;;4.18;73.15;97819.03;1755976;81;21128;-75
2020/12/16 03:56:14;;;;;;;7.75;5.78;;;;;;;4.32;72.81;97821.05;1796763;79;24513;-93
2020/12/16 03:58:54;;;;;;;8.78;6.37;;;;;;;4.35;72.69;97822.23;1733260;81;21278;-84
2020/12/16 04:01:52;;;;;;;8.10;6.10;;;;;;;4.33;72.07;97813.14;1822655;77;24290;-92
2020/12/16 04:04:21;;;;;;;9.10;6.75;;;;;;;4.25;72.04;97815.71;1812015;78;21113;-93
2020/12/16 04:06:58;;;;;;;9.15;6.92;;;;;;;4.29;71.99;97823.78;1777389;80;21268;-91
2020/12/16 04:09:27;;;;;;;10.23;6.95;;;;;;;4.34;71.98;97818.75;1764238;80;21159;-76
2020/12/16 04:11:56;;;;;;;9.43;7.05;;;;;;;4.34;71.56;97827.89;1732825;81;21138;-75
2020/12/16 04:14:30;;;;;;;10.60;6.22;;;;;;;4.32;71.58;97825.80;1753018;80;21144;-80
2020/12/16 04:16:57;;;;;;;9.08;5.97;;;;;;;4.32;71.21;97827.58;1755989;80;21221;-77
2020/12/16 04:19:27;;;;;;;8.18;5.85;;;;;;;4.26;71.18;97824.77;1751936;80;21147;-81
2020/12/16 04:21:59;;;;;;;8.83;6.42;;;;;;;4.18;71.06;97826.86;1744553;81;21266;-75
2020/12/16 04:24:28;;;;;;;7.85;6.20;;;;;;;4.11;71.20;97825.44;1771979;81;21667;-88
2020/12/16 04:27:01;;;;;;;9.73;6.58;;;;;;;4.05;71.22;97825.23;1773520;81;21254;-90
2020/12/16 04:29:28;;;;;;;9.10;6.17;;;;;;;3.98;71.15;97824.64;1761794;81;21319;-93
2020/12/16 04:31:57;;;;;;;9.58;5.90;;;;;;;3.96;71.25;97826.92;1754648;81;21266;-77
2020/12/16 04:34:26;;;;;;;14.80;6.67;;;;;;;3.92;71.31;97830.12;1764961;79;21180;-86
2020/12/16 04:36:56;;;;;;;13.55;7.05;;;;;;;3.91;71.36;97837.55;1753880;81;21263;-83
2020/12/16 04:39:26;;;;;;;9.15;6.65;;;;;;;3.87;71.28;97837.27;1751428;81;21230;-92
2020/12/16 04:41:56;;;;;;;9.33;6.97;;;;;;;3.84;71.32;97842.63;1774180;81;21278;-74
2020/12/16 04:44:24;;;;;;;9.18;5.58;;;;;;;3.78;71.33;97837.21;1760155;81;21264;-75
2020/12/16 04:46:55;;;;;;;11.28;7.30;;;;;;;3.76;71.32;97840.33;1712081;82;21144;-76
2020/12/16 04:49:26;;;;;;;8.20;5.33;;;;;;;3.73;71.40;97846.52;1732395;83;21149;-76
2020/12/16 04:51:58;;;;;;;11.12;6.40;;;;;;;3.73;71.42;97842.61;1746363;82;21152;-75
2020/12/16 04:54:43;;;;;;;8.75;5.90;;;;;;;3.80;71.38;97850.17;1806273;78;25427;-77
2020/12/16 04:57:12;;;;;;;11.20;7.12;;;;;;;3.73;71.39;97855.65;1814034;77;21116;-75
2020/12/16 04:59:43;;;;;;;12.05;8.98;;;;;;;3.71;71.40;97853.55;1728977;81;21359;-76
2020/12/16 05:02:28;;;;;;;13.70;7.85;;;;;;;3.80;71.43;97855.39;1805482;79;24734;-75
2020/12/16 05:04:59;;;;;;;11.57;7.55;;;;;;;3.75;71.50;97859.49;1764849;80;21165;-84
2020/12/16 05:07:30;;;;;;;12.10;7.17;;;;;;;3.77;71.45;97855.50;1799100;80;21318;-73
2020/12/16 05:10:00;;;;;;;11.00;7.95;;;;;;;3.78;71.41;97853.30;1774868;80;21130;-85
2020/12/16 05:12:31;;;;;;;12.35;7.67;;;;;;;3.77;71.35;97854.20;1762082;81;21282;-91
2020/12/16 05:14:59;;;;;;;9.85;7.33;;;;;;;3.78;71.37;97862.42;1769934;80;21281;-74
2020/12/16 05:17:27;;;;;;;10.68;6.92;;;;;;;3.71;71.47;97863.98;1775006;80;21282;-77
2020/12/16 05:20:01;;;;;;;11.20;8.10;;;;;;;3.69;71.39;97861.89;1786109;80;21250;-78
2020/12/16 05:22:31;;;;;;;10.53;7.00;;;;;;;3.66;71.19;97864.64;1763568;80;21624;-77
2020/12/16 05:25:00;;;;;;;8.43;6.10;;;;;;;3.57;71.48;97867.14;1776239;80;21274;-92
2020/12/16 05:27:33;;;;;;;9.08;5.87;;;;;;;3.43;71.51;97862.95;1722135;83;21147;-84
2020/12/16 05:30:06;;;;;;;8.60;6.20;;;;;;;3.46;71.95;97864.57;1727525;83;21152;-80
2020/12/16 05:32:36;;;;;;;11.88;5.78;;;;;;;3.44;72.28;97868.52;1722104;83;21322;-75
2020/12/16 05:35:33;;;;;;;8.00;5.40;;;;;;;3.43;72.29;97867.69;1685648;84;21266;-78
2020/12/16 05:38:09;;;;;;;8.00;6.03;;;;;;;3.31;71.82;97865.55;1683274;85;21290;-77
2020/12/16 05:40:41;;;;;;;10.50;5.85;;;;;;;3.32;72.02;97865.94;1691393;84;21153;-77
2020/12/16 05:43:13;;;;;;;8.38;5.97;;;;;;;3.35;72.18;97866.27;1675997;84;21274;-82
2020/12/16 05:45:41;;;;;;;8.98;6.17;;;;;;;3.42;72.40;97870.36;1702315;83;21147;-77
2020/12/16 05:48:11;;;;;;;8.88;6.50;;;;;;;3.39;72.09;97866.09;1720220;83;21268;-84
2020/12/16 05:50:52;;;;;;;8.50;6.25;;;;;;;3.36;72.07;97878.40;1721408;83;21283;-81
2020/12/16 05:53:28;;;;;;;9.00;6.92;;;;;;;3.36;72.16;97870.14;1731841;83;21298;-84
2020/12/16 05:56:01;;;;;;;12.73;6.72;;;;;;;3.41;72.33;97869.50;1714786;83;21721;-85
2020/12/16 05:58:35;;;;;;;12.13;5.60;;;;;;;3.51;72.24;97870.44;1729850;83;21286;-79
2020/12/16 06:01:08;;;;;;;18.87;12.43;;;;;;;3.58;71.99;97870.58;1696293;84;21320;-92
2020/12/16 06:03:40;;;;;;;10.78;7.60;;;;;;;3.56;71.67;97873.73;1700632;83;21271;-90
2020/12/16 06:06:10;;;;;;;10.38;7.00;;;;;;;3.53;71.62;97873.84;1742884;82;21144;-89
2020/12/16 06:08:42;;;;;;;22.32;14.10;;;;;;;3.52;71.59;97873.45;1758265;82;21302;-74
2020/12/16 06:11:14;;;;;;;9.20;6.83;;;;;;;3.52;71.67;97874.75;1727479;82;21159;-93
2020/12/16 06:13:47;;;;;;;10.25;6.80;;;;;;;3.53;71.66;97875.98;1717919;83;21278;-80
2020/12/16 06:16:17;;;;;;;11.40;6.87;;;;;;;3.56;71.76;97875.03;1758158;82;21298;-79
2020/12/16 06:18:45;;;;;;;10.48;7.47;;;;;;;3.56;71.49;97879.78;1731560;81;21148;-86
2020/12/16 06:21:16;;;;;;;10.40;7.47;;;;;;;3.57;71.66;97877.57;1736043;82;21128;-89
2020/12/16 06:23:46;;;;;;;18.70;7.17;;;;;;;3.61;71.70;97880.07;1740221;82;21229;-90
2020/12/16 06:26:19;;;;;;;10.00;6.03;;;;;;;3.64;71.55;97880.80;1738109;82;21152;-92
2020/12/16 06:28:47;;;;;;;21.45;11.25;;;;;;;3.67;71.66;97887.64;1749820;81;21262;-89
2020/12/16 06:31:29;;;;;;;9.08;6.80;;;;;;;3.69;71.63;97884.52;1750964;81;21266;-89
2020/12/16 06:34:01;;;;;;;9.45;7.08;;;;;;;3.74;71.57;97889.09;1728547;82;21199;-81
2020/12/16 06:36:33;;;;;;;15.58;8.43;;;;;;;3.79;71.56;97886.29;1722980;83;21163;-84
2020/12/16 06:39:04;;;;;;;14.73;8.70;;;;;;;3.81;71.49;97892.30;1727409;82;21113;-90
2020/12/16 06:41:34;;;;;;;13.50;7.50;;;;;;;3.82;71.54;97888.78;1756886;81;21270;-82
2020/12/16 06:44:11;;;;;;;10.63;7.15;;;;;;;3.83;71.51;97886.58;1741910;81;21282;-86
2020/12/16 06:46:43;;;;;;;11.90;7.92;;;;;;;3.84;71.43;97886.50;1706917;83;21225;-85
2020/12/16 06:49:27;;;;;;;16.62;8.08;;;;;;;3.85;71.37;97884.29;1755087;82;21564;-92
2020/12/16 06:52:00;;;;;;;11.12;8.10;;;;;;;3.87;71.34;97883.78;1729204;82;21539;-88
2020/12/16 06:54:38;;;;;;;20.90;9.60;;;;;;;3.90;71.33;97889.33;1757897;82;21112;-94
2020/12/16 06:57:18;;;;;;;13.38;7.85;;;;;;;3.93;71.20;97887.03;1758725;81;21135;-92
2020/12/16 07:00:00;;;;;;;13.75;9.25;;;;;;;3.95;71.19;97891.74;1744117;81;21351;-93
2020/12/16 07:02:35;;;;;;;13.65;8.38;;;;;;;3.94;71.17;97892.22;1743271;82;21112;-90
2020/12/16 07:05:10;;;;;;;13.98;9.25;;;;;;;3.95;71.12;97893.05;1726038;82;21165;-82
2020/12/16 07:07:49;;;;;;;13.30;9.00;;;;;;;3.96;70.98;97895.58;1720326;83;21169;-89
2020/12/16 07:10:41;;;;;;;12.35;8.58;;;;;;;3.95;71.00;97896.49;1720735;83;21170;-93
2020/12/16 07:13:27;;;;;;;14.03;9.80;;;;;;;3.93;70.93;97898.34;1726518;82;21278;-92
2020/12/16 07:16:01;;;;;;;12.90;7.97;;;;;;;3.91;70.93;97891.02;1750083;82;21262;-88
2020/12/16 07:18:41;;;;;;;13.25;8.33;;;;;;;3.91;71.02;97891.86;1736002;82;21152;-87
2020/12/16 07:21:18;;;;;;;12.13;7.97;;;;;;;3.94;71.04;97891.34;1727019;82;21298;-88
2020/12/16 07:24:01;;;;;;;18.10;8.90;;;;;;;3.99;71.09;97894.63;1731938;82;21186;-91
2020/12/16 07:26:46;;;;;;;24.65;11.20;;;;;;;4.03;71.14;97900.97;1716480;83;21304;-91
2020/12/16 07:29:28;;;;;;;15.08;8.53;;;;;;;4.08;70.99;97899.91;1728578;82;21157;-94
2020/12/16 07:32:03;;;;;;;16.50;8.40;;;;;;;4.11;70.76;97897.19;1742756;82;21328;-93
2020/12/16 07:34:52;;;;;;;10.90;7.58;;;;;;;4.14;70.75;97894.43;1738893;82;21300;-88
2020/12/16 07:37:23;;;;;;;13.48;7.95;;;;;;;4.19;70.67;97901.63;1730353;82;21271;-91
2020/12/16 07:39:55;;;;;;;11.73;8.43;;;;;;;4.18;70.53;97897.32;1718868;83;21275;-90
2020/12/16 07:42:29;;;;;;;13.03;7.70;;;;;;;4.19;70.35;97899.02;1727880;82;21279;-83
2020/12/16 07:45:00;;;;;;;10.93;7.37;;;;;;;4.22;70.34;97888.47;1724261;82;21172;-84
2020/12/16 07:47:28;;;;;;;11.05;7.62;;;;;;;4.22;70.28;97884.08;1731634;82;21160;-90
2020/12/16 07:49:56;;;;;;;13.13;7.62;;;;;;;4.24;70.40;97885.31;1713561;84;21316;-86
2020/12/16 07:52:29;;;;;;;13.88;8.03;;;;;;;4.30;70.50;97881.59;1725485;82;21147;-85
2020/12/16 07:54:57;;;;;;;13.38;7.67;;;;;;;4.41;70.76;97886.38;1729805;82;21861;-84
2020/12/16 07:57:33;;;;;;;14.68;7.60;;;;;;;4.49;70.73;97882.98;1727839;82;21126;-80
2020/12/16 08:00:03;;;;;;;;;;;;;;;4.56;70.22;97883.54;1739381;82;21526;-77
2020/12/16 08:02:36;;;;;;;10.23;7.08;;;;;;;4.45;69.80;97886.19;1731517;82;20145;-81
2020/12/16 08:05:03;;;;;;;8.40;5.35;;;;;;;4.42;70.31;97895.88;1734271;82;21147;-78
2020/12/16 08:07:35;;;;;;;11.50;7.28;;;;;;;4.44;70.38;97892.75;1716941;83;21123;-76
2020/12/16 08:10:07;;;;;;;10.90;7.22;;;;;;;4.37;70.33;97893.47;1734963;82;21135;-81
2020/12/16 08:12:42;;;;;;;8.75;5.97;;;;;;;4.29;69.75;97895.12;1727845;82;21315;-81
2020/12/16 08:15:17;;;;;;;11.03;6.90;;;;;;;4.30;70.01;97896.81;1718018;82;21129;-82
2020/12/16 08:17:51;;;;;;;11.48;6.45;;;;;;;4.35;70.75;97897.93;1728528;82;21160;-81
2020/12/16 08:20:29;;;;;;;14.90;7.80;;;;;;;4.50;71.09;97902.95;1748754;82;21152;-79
2020/12/16 08:22:58;;;;;;;9.98;6.78;;;;;;;4.53;70.73;97908.03;1728348;82;21127;-81
2020/12/16 08:25:27;;;;;;;11.38;8.00;;;;;;;4.52;70.31;97896.75;1719263;82;21180;-85
2020/12/16 08:27:57;;;;;;;12.18;7.72;;;;;;;4.49;69.07;97905.17;1736465;82;21148;-84
2020/12/16 08:30:28;;;;;;;11.85;7.97;;;;;;;4.31;69.76;97903.73;1699968;83;22284;-82
2020/12/16 08:33:09;;;;;;;12.53;8.48;;;;;;;4.29;70.04;97906.86;1717510;83;21692;-81
2020/12/16 08:36:00;;;;;;;11.97;7.95;;;;;;;4.32;70.09;97903.27;1743181;82;21233;-81
2020/12/16 08:38:43;;;;;;;13.53;8.95;;;;;;;4.32;69.70;97902.80;1720644;82;21350;-79
2020/12/16 08:41:15;;;;;;;12.47;9.13;;;;;;;4.28;69.81;97904.30;1722279;82;21152;-82
2020/12/16 08:43:43;;;;;;;10.28;5.72;;;;;;;4.31;69.77;97906.34;1703625;82;21171;-80
2020/12/16 08:46:23;;;;;;;7.10;5.05;;;;;;;4.27;69.29;97906.07;1685306;83;21177;-80
2020/12/16 08:49:03;;;;;;;11.55;8.70;;;;;;;4.11;69.78;97915.45;1742125;82;21593;-85
2020/12/16 08:51:42;;;;;;;13.95;7.03;;;;;;;3.91;69.50;97899.69;1735419;82;21121;-84
2020/12/16 08:54:26;;;;;;;11.83;7.50;;;;;;;4.00;70.03;97906.30;1742413;82;21195;-83
2020/12/16 08:56:59;;;;;;;12.28;8.63;;;;;;;4.05;69.86;97900.42;1683707;84;21323;-86
2020/12/16 08:59:31;;;;;;;12.03;8.55;;;;;;;4.00;69.13;97901.52;1719322;82;21294;-86
2020/12/16 09:02:09;;;;;;;14.80;8.70;;;;;;;4.06;69.47;97907.34;1726487;82;21195;-86
2020/12/16 09:04:40;;;;;;;15.80;8.18;;;;;;;4.12;69.55;97897.58;1688650;85;21198;-85
2020/12/16 09:07:14;;;;;;;16.55;7.78;;;;;;;4.09;69.46;97905.06;1665758;86;21179;-87
2020/12/16 09:09:51;;;;;;;11.60;8.65;;;;;;;4.09;69.67;97899.00;1712797;82;21192;-86
2020/12/16 09:12:22;;;;;;;13.10;8.65;;;;;;;4.13;69.84;97901.89;1720938;82;21152;-86
2020/12/16 09:14:59;;;;;;;10.05;8.10;;;;;;;4.26;69.88;97888.71;1725514;82;21137;-80
2020/12/16 09:17:31;;;;;;;11.83;8.35;;;;;;;4.44;69.75;97891.02;1727684;82;21181;-87
2020/12/16 09:19:59;;;;;;;12.82;8.60;;;;;;;4.50;68.44;97882.07;1706984;82;21204;-82
2020/12/16 09:22:30;;;;;;;10.00;7.75;;;;;;;4.57;69.10;97874.80;1720500;82;21144;-85
2020/12/16 09:25:00;;;;;;;16.62;9.13;;;;;;;4.66;69.09;97878.31;1733022;82;21329;-88
2020/12/16 09:27:29;;;;;;;23.85;15.32;;;;;;;4.73;69.12;97874.98;1664744;86;21227;-84
2020/12/16 09:29:57;;;;;;;18.07;10.43;;;;;;;4.82;69.05;97868.91;1717759;82;21152;-85
2020/12/16 09:32:26;;;;;;;18.02;10.32;;;;;;;4.94;68.99;97859.66;1729422;82;21529;-87
2020/12/16 09:34:55;;;;;;;13.40;9.83;;;;;;;5.05;68.75;97863.08;1719419;82;21621;-82
2020/12/16 09:37:28;;;;;;;11.93;9.13;;;;;;;5.13;68.54;97854.91;1722676;82;21133;-83
2020/12/16 09:40:17;;;;;;;15.98;9.70;;;;;;;5.19;68.21;97852.47;1670732;84;21191;-80
2020/12/16 09:42:58;;;;;;;9.85;5.85;;;;;;;5.29;68.21;97852.43;1722615;82;21191;-84
2020/12/16 09:45:32;;;;;;;10.53;7.62;;;;;;;5.26;66.91;97849.47;1719566;82;21128;-86
2020/12/16 09:48:02;;;;;;;12.47;6.78;;;;;;;5.16;67.57;97841.67;1716533;82;21187;-83
2020/12/16 09:50:33;;;;;;;11.70;5.80;;;;;;;4.94;65.75;97817.86;1697051;82;21120;-86
2020/12/16 09:53:06;;;;;;;8.70;5.62;;;;;;;5.19;67.09;97842.84;1666208;86;21175;-82
2020/12/16 09:55:42;;;;;;;8.63;5.87;;;;;;;5.28;66.10;97841.11;1722592;82;21580;-81
2020/12/16 09:58:15;;;;;;;9.00;5.53;;;;;;;5.36;65.97;97842.06;1715920;83;21116;-81
2020/12/16 10:00:43;;;;;;;10.20;6.17;;;;;;;5.54;68.02;97835.57;1712108;83;21601;-81
2020/12/16 10:03:20;;;;;;;7.72;6.10;;;;;;;5.66;67.25;97834.13;1715550;82;21156;-84
2020/12/16 10:05:48;;;;;;;7.97;5.75;;;;;;;5.75;66.60;97818.81;1718609;83;21625;-80
2020/12/16 10:08:16;;;;;;;10.28;6.87;;;;;;;5.48;64.70;97815.78;1718935;83;21152;-85
2020/12/16 10:10:45;;;;;;;8.65;6.72;;;;;;;5.50;66.36;97819.18;1719870;82;21117;-80
2020/12/16 10:13:17;;;;;;;10.95;7.50;;;;;;;5.45;66.71;97821.16;1719416;82;21140;-82
2020/12/16 10:15:45;;;;;;;15.08;7.62;;;;;;;5.51;66.63;97819.57;1718563;82;21597;-81
2020/12/16 10:18:13;;;;;;;6.62;5.25;;;;;;;5.63;66.92;97808.97;1722060;82;21177;-85
2020/12/16 10:20:40;;;;;;;10.38;5.53;;;;;;;5.74;66.17;97812.36;1747491;82;21191;-82
2020/12/16 10:23:08;;;;;;;14.87;10.05;;;;;;;5.79;66.45;97811.21;1691679;83;21144;-85
2020/12/16 10:25:36;;;;;;;12.63;7.70;;;;;;;5.67;66.18;97809.19;1735388;82;21197;-82
2020/12/16 10:28:09;;;;;;;14.23;10.03;;;;;;;5.61;66.14;97794.64;1718133;82;21164;-81
2020/12/16 10:30:34;;;;;;;13.48;9.95;;;;;;;5.53;65.75;97790.72;1726757;82;21155;-88
2020/12/16 10:33:03;;;;;;;14.80;11.15;;;;;;;5.58;66.24;97796.56;1718937;83;21595;-87
2020/12/16 10:35:31;;;;;;;17.80;11.10;;;;;;;5.52;66.37;97797.70;1735158;82;21151;-80
2020/12/16 10:38:01;;;;;;;13.10;9.18;;;;;;;5.45;66.54;97797.17;1720186;82;21124;-80
2020/12/16 10:40:31;;;;;;;12.93;7.17;;;;;;;5.47;66.63;97804.94;1734600;82;21164;-78
2020/12/16 10:43:00;;;;;;;19.05;10.18;;;;;;;5.38;66.86;97803.59;1713056;84;21572;-80
2020/12/16 10:45:28;;;;;;;15.85;10.05;;;;;;;5.38;67.21;97795.75;1728988;82;21197;-82
2020/12/16 10:47:59;;;;;;;11.95;7.87;;;;;;;5.43;66.49;97793.78;1740871;82;21139;-79
2020/12/16 10:50:32;;;;;;;10.80;6.47;;;;;;;5.45;66.71;97798.92;1699305;84;21101;-83
2020/12/16 10:53:04;;;;;;;15.32;10.28;;;;;;;5.33;67.00;97800.37;1721073;82;21156;-83
2020/12/16 10:55:33;;;;;;;11.90;6.78;;;;;;;5.12;67.26;97807.47;1741527;82;21164;-84
2020/12/16 10:58:01;;;;;;;16.10;8.63;;;;;;;5.19;67.20;97811.48;1748685;82;21314;-83
2020/12/16 11:00:29;;;;;;;12.85;9.28;;;;;;;4.97;67.33;97809.02;1748641;82;21279;-86
2020/12/16 11:02:57;;;;;;;16.32;9.85;;;;;;;4.82;67.97;97810.12;1741754;82;21207;-84
2020/12/16 11:05:25;;;;;;;12.82;8.20;;;;;;;4.66;68.56;97808.66;1725473;82;21169;-84
2020/12/16 11:07:53;;;;;;;14.05;8.28;;;;;;;4.84;68.63;97803.52;1726574;83;21168;-82
2020/12/16 11:10:20;;;;;;;14.28;9.60;;;;;;;4.94;68.56;97800.88;1730140;82;21568;-85
2020/12/16 11:12:48;;;;;;;15.40;9.85;;;;;;;5.12;68.72;97798.32;1745293;81;21152;-80
2020/12/16 11:15:16;;;;;;;12.80;9.18;;;;;;;5.30;68.43;97788.30;1729367;82;21156;-86
2020/12/16 11:17:44;;;;;;;11.40;7.95;;;;;;;5.44;66.97;97791.55;1738398;82;21148;-84
2020/12/16 11:20:12;;;;;;;16.15;10.45;;;;;;;5.42;67.44;97795.17;1730512;82;21156;-87
2020/12/16 11:22:40;;;;;;;14.65;9.05;;;;;;;5.25;67.57;97794.19;1728965;82;21183;-85
2020/12/16 11:25:10;;;;;;;18.85;11.93;;;;;;;5.34;67.75;97795.97;1744152;82;21146;-85
2020/12/16 11:27:38;;;;;;;18.32;11.95;;;;;;;5.36;67.36;97788.91;1737463;81;21187;-88
2020/12/16 11:30:08;;;;;;;20.00;9.25;;;;;;;5.35;67.59;97794.62;1727631;82;21187;-82
2020/12/16 11:32:36;;;;;;;20.30;11.68;;;;;;;5.35;66.89;97793.75;1724069;81;21204;-81
2020/12/16 11:35:05;;;;;;;17.37;10.80;;;;;;;5.19;67.40;97793.19;1724439;83;21168;-86
2020/12/16 11:37:34;;;;;;;20.05;10.45;;;;;;;5.08;67.51;97794.14;1726402;82;21180;-79
2020/12/16 11:40:04;;;;;;;16.32;11.28;;;;;;;5.16;67.71;97794.62;1730219;82;21161;-83
2020/12/16 11:42:32;;;;;;;15.95;8.70;;;;;;;5.23;67.76;97793.44;1755567;82;21175;-86
2020/12/16 11:45:00;;;;;;;16.07;10.28;;;;;;;5.29;67.44;97790.52;1752599;82;21616;-84
2020/12/16 11:47:28;;;;;;;16.45;11.25;;;;;;;5.27;67.77;97801.50;1726731;83;21200;-92
2020/12/16 11:49:56;;;;;;;16.27;11.08;;;;;;;5.31;67.82;97800.90;1726319;83;21166;-87
2020/12/16 11:52:27;;;;;;;14.93;9.60;;;;;;;5.43;68.11;97805.99;1727357;83;21153;-91
2020/12/16 11:54:57;;;;;;;12.25;8.30;;;;;;;5.51;67.79;97804.33;1692142;85;21171;-88
2020/12/16 11:57:27;;;;;;;10.32;7.62;;;;;;;5.50;67.77;97804.80;1745339;82;21188;-90